Time,TemperatureF,DewpointF,PressureIn,WindDirection,WindDirectionDegrees,WindSpeedMPH,WindSpeedGustMPH,Humidity,HourlyPrecipIn,Conditions,Clouds,dailyrainin,SolarRadiationWatts/m^2,SoftwareType,DateUTC
2013-02-14 00:00:00,40.7,35.0,29.84,WNW,288,0.0,2.0,79,0.00,,,0.00,0,weatherlink.com 1.10,2013-02-13 23:00:00,
2013-02-14 00:15:00,40.6,35.0,29.84,WNW,288,1.0,1.0,80,0.00,,,0.00,0,weatherlink.com 1.10,2013-02-13 23:15:00,
2013-02-14 00:30:00,40.5,35.0,29.85,WNW,288,0.0,1.0,80,0.00,,,0.00,0,weatherlink.com 1.10,2013-02-13 23:30:00,
2013-02-14 00:46:00,40.4,35.0,29.85,WNW,288,0.0,1.0,80,0.00,,,0.00,0,weatherlink.com 1.10,2013-02-13 23:46:00,
2013-02-14 01:00:00,40.3,35.0,29.85,WNW,288,0.0,2.0,80,0.00,,,0.00,0,weatherlink.com 1.10,2013-02-14 00:00:00,
2013-02-14 01:15:00,40.3,35.0,29.85,WNW,288,1.0,2.0,80,0.00,,,0.00,0,weatherlink.com 1.10,2013-02-14 00:15:00,
2013-02-14 01:30:00,40.1,34.0,29.86,WNW,288,0.0,1.0,80,0.00,,,0.00,0,weatherlink.com 1.10,2013-02-14 00:30:00,
2013-02-14 01:45:00,40.1,34.0,29.86,WNW,288,0.0,1.0,80,0.00,,,0.00,0,weatherlink.com 1.10,2013-02-14 00:45:00,
2013-02-14 02:00:00,40.0,34.0,29.87,WNW,288,0.0,1.0,80,0.00,,,0.00,0,weatherlink.com 1.10,2013-02-14 01:00:00,
2013-02-14 02:15:00,39.8,34.0,29.87,WNW,288,0.0,1.0,81,0.00,,,0.00,0,weatherlink.com 1.10,2013-02-14 01:15:00,
2013-02-14 02:30:00,39.6,34.0,29.87,WNW,288,0.0,1.0,81,0.00,,,0.00,0,weatherlink.com 1.10,2013-02-14 01:30:00,
2013-02-14 02:45:00,39.4,34.0,29.88,WNW,288,0.0,1.0,82,0.00,,,0.00,0,weatherlink.com 1.10,2013-02-14 01:45:00,
2013-02-14 03:00:00,39.3,34.0,29.88,WNW,288,0.0,1.0,82,0.00,,,0.00,0,weatherlink.com 1.10,2013-02-14 02:00:00,
2013-02-14 03:15:00,39.2,34.0,29.88,WNW,288,0.0,1.0,82,0.00,,,0.00,0,weatherlink.com 1.10,2013-02-14 02:15:00,
2013-02-14 03:30:00,39.2,34.0,29.88,WNW,288,0.0,1.0,82,0.00,,,0.00,0,weatherlink.com 1.10,2013-02-14 02:30:00,
2013-02-14 03:45:00,39.1,34.0,29.88,WNW,288,0.0,1.0,82,0.00,,,0.00,0,weatherlink.com 1.10,2013-02-14 02:45:00,
2013-02-14 04:00:00,39.0,34.0,29.89,WNW,288,0.0,1.0,83,0.00,,,0.00,0,weatherlink.com 1.10,2013-02-14 03:00:00,
2013-02-14 04:15:00,38.8,34.0,29.89,WNW,288,0.0,1.0,83,0.00,,,0.00,0,weatherlink.com 1.10,2013-02-14 03:15:00,
2013-02-14 04:30:00,38.7,34.0,29.89,WNW,288,0.0,1.0,83,0.00,,,0.00,0,weatherlink.com 1.10,2013-02-14 03:30:00,
2013-02-14 04:45:00,38.4,34.0,29.89,WNW,288,0.0,1.0,84,0.00,,,0.00,0,weatherlink.com 1.10,2013-02-14 03:45:00,
2013-02-14 05:00:00,38.3,34.0,29.89,WNW,288,0.0,1.0,84,0.00,,,0.00,0,weatherlink.com 1.10,2013-02-14 04:00:00,
2013-02-14 05:15:00,38.2,34.0,29.90,WNW,288,0.0,0.0,84,0.00,,,0.00,0,weatherlink.com 1.10,2013-02-14 04:15:00,
2013-02-14 05:45:00,38.3,34.0,29.92,WNW,288,0.0,1.0,84,0.00,,,0.00,0,weatherlink.com 1.10,2013-02-14 04:45:00,
2013-02-14 06:00:00,38.3,34.0,29.92,WNW,288,0.0,1.0,84,0.00,,,0.00,0,weatherlink.com 1.10,2013-02-14 05:00:00,
2013-02-14 06:15:00,38.2,34.0,29.92,WNW,288,0.0,0.0,84,0.00,,,0.00,0,weatherlink.com 1.10,2013-02-14 05:15:00,
2013-02-14 06:30:00,38.1,34.0,29.92,WNW,288,0.0,0.0,84,0.00,,,0.00,0,weatherlink.com 1.10,2013-02-14 05:30:00,
2013-02-14 06:45:00,38.1,34.0,29.93,WNW,288,0.0,1.0,84,0.00,,,0.00,0,weatherlink.com 1.10,2013-02-14 05:45:00,
2013-02-14 07:00:00,38.1,34.0,29.93,WNW,288,0.0,1.0,84,0.00,,,0.00,0,weatherlink.com 1.10,2013-02-14 06:00:00,
2013-02-14 07:15:00,38.2,34.0,29.94,WNW,288,0.0,2.0,84,0.00,,,0.00,0,weatherlink.com 1.10,2013-02-14 06:15:00,
2013-02-14 07:30:00,38.2,34.0,29.94,WNW,288,1.0,1.0,84,0.00,,,0.00,12,weatherlink.com 1.10,2013-02-14 06:30:00,
2013-02-14 07:45:00,38.5,34.0,29.95,WNW,288,0.0,0.0,84,0.00,,,0.00,19,weatherlink.com 1.10,2013-02-14 06:45:00,
2013-02-14 08:01:00,38.8,34.0,29.95,WNW,288,0.0,0.0,84,0.00,,,0.00,25,weatherlink.com 1.10,2013-02-14 07:01:00,
2013-02-14 08:16:00,39.4,35.0,29.96,WNW,288,0.0,1.0,84,0.00,,,0.00,28,weatherlink.com 1.10,2013-02-14 07:16:00,
2013-02-14 08:31:00,40.0,35.0,29.97,WNW,288,0.0,1.0,83,0.00,,,0.00,32,weatherlink.com 1.10,2013-02-14 07:31:00,
2013-02-14 08:46:00,40.9,36.0,29.97,WNW,288,0.0,1.0,82,0.00,,,0.00,37,weatherlink.com 1.10,2013-02-14 07:46:00,
2013-02-14 09:01:00,42.1,36.0,29.97,WNW,288,0.0,1.0,79,0.00,,,0.00,40,weatherlink.com 1.10,2013-02-14 08:01:00,
2013-02-14 09:16:00,43.3,37.0,29.97,WNW,288,0.0,2.0,77,0.00,,,0.00,47,weatherlink.com 1.10,2013-02-14 08:16:00,
2013-02-14 09:31:00,44.6,37.0,29.97,WNW,288,0.0,2.0,75,0.00,,,0.00,181,weatherlink.com 1.10,2013-02-14 08:31:00,
2013-02-14 09:46:00,45.7,37.0,29.98,WNW,288,0.0,1.0,72,0.00,,,0.00,79,weatherlink.com 1.10,2013-02-14 08:46:00,
2013-02-14 10:01:00,46.5,37.0,29.98,WNW,288,0.0,2.0,70,0.00,,,0.00,58,weatherlink.com 1.10,2013-02-14 09:01:00,
2013-02-14 10:16:00,47.2,37.0,29.98,WNW,287,0.0,2.0,68,0.00,,,0.00,163,weatherlink.com 1.10,2013-02-14 09:16:00,
2013-02-14 10:31:00,48.1,37.0,29.98,WNW,287,0.0,2.0,66,0.00,,,0.00,62,weatherlink.com 1.10,2013-02-14 09:31:00,
2013-02-14 10:46:00,48.9,38.0,29.98,WNW,287,0.0,1.0,65,0.00,,,0.00,452,weatherlink.com 1.10,2013-02-14 09:46:00,
2013-02-14 11:01:00,49.9,38.0,29.99,WNW,287,0.0,2.0,63,0.00,,,0.00,250,weatherlink.com 1.10,2013-02-14 10:01:00,
2013-02-14 11:16:00,50.8,38.0,29.98,WNW,287,0.0,2.0,61,0.00,,,0.00,171,weatherlink.com 1.10,2013-02-14 10:16:00,
2013-02-14 11:31:00,52.2,38.0,29.99,WNW,287,0.0,2.0,58,0.00,,,0.00,570,weatherlink.com 1.10,2013-02-14 10:31:00,
2013-02-14 11:46:00,53.9,38.0,29.98,WNW,287,0.0,2.0,56,0.00,,,0.00,598,weatherlink.com 1.10,2013-02-14 10:46:00,
2013-02-14 12:01:00,54.9,37.0,29.98,WNW,287,0.0,2.0,52,0.00,,,0.00,615,weatherlink.com 1.10,2013-02-14 11:01:00,
2013-02-14 12:16:00,56.2,38.0,29.98,WNW,287,0.0,2.0,50,0.00,,,0.00,624,weatherlink.com 1.10,2013-02-14 11:16:00,
2013-02-14 12:31:00,56.5,38.0,29.97,WNW,287,0.0,4.0,50,0.00,,,0.00,626,weatherlink.com 1.10,2013-02-14 11:31:00,
2013-02-14 12:47:00,57.5,38.0,29.97,WNW,287,0.0,2.0,49,0.00,,,0.00,629,weatherlink.com 1.10,2013-02-14 11:47:00,
2013-02-14 13:02:00,58.4,37.0,29.97,WNW,287,0.0,2.0,46,0.00,,,0.00,628,weatherlink.com 1.10,2013-02-14 12:02:00,
2013-02-14 13:17:00,59.2,38.0,29.97,WNW,287,0.0,2.0,46,0.00,,,0.00,617,weatherlink.com 1.10,2013-02-14 12:17:00,
2013-02-14 13:33:00,59.9,37.0,29.97,WNW,287,1.0,3.0,43,0.00,,,0.00,594,weatherlink.com 1.10,2013-02-14 12:33:00,
2013-02-14 13:47:00,59.9,38.0,29.97,WNW,287,0.0,2.0,45,0.00,,,0.00,564,weatherlink.com 1.10,2013-02-14 12:47:00,
2013-02-14 14:02:00,60.1,37.0,29.96,WNW,287,0.0,3.0,43,0.00,,,0.00,281,weatherlink.com 1.10,2013-02-14 13:02:00,
2013-02-14 14:17:00,59.6,37.0,29.96,WNW,287,1.0,2.0,43,0.00,,,0.00,413,weatherlink.com 1.10,2013-02-14 13:17:00,
2013-02-14 14:32:00,59.2,38.0,29.96,WNW,287,0.0,2.0,45,0.00,,,0.00,149,weatherlink.com 1.10,2013-02-14 13:32:00,
2013-02-14 14:47:00,59.5,38.0,29.95,WNW,290,0.0,3.0,45,0.00,,,0.00,396,weatherlink.com 1.10,2013-02-14 13:47:00,
2013-02-14 15:02:00,59.3,38.0,29.95,WNW,288,0.0,2.0,46,0.00,,,0.00,427,weatherlink.com 1.10,2013-02-14 14:02:00,
2013-02-14 15:17:00,59.7,36.0,29.95,NW,304,0.0,2.0,42,0.00,,,0.00,84,weatherlink.com 1.10,2013-02-14 14:17:00,
2013-02-14 15:32:00,60.0,38.0,29.95,WNW,298,1.0,3.0,44,0.00,,,0.00,40,weatherlink.com 1.10,2013-02-14 14:32:00,
2013-02-14 15:47:00,58.6,38.0,29.96,WNW,299,0.0,3.0,46,0.00,,,0.00,33,weatherlink.com 1.10,2013-02-14 14:47:00,
2013-02-14 16:02:00,57.2,38.0,29.96,WNW,299,0.0,1.0,49,0.00,,,0.00,32,weatherlink.com 1.10,2013-02-14 15:02:00,
2013-02-14 16:17:00,56.2,40.0,29.96,WNW,287,0.0,3.0,54,0.00,,,0.00,25,weatherlink.com 1.10,2013-02-14 15:17:00,
2013-02-14 16:32:00,55.2,41.0,29.96,WNW,285,2.0,2.0,59,0.00,,,0.00,21,weatherlink.com 1.10,2013-02-14 15:32:00,
2013-02-14 16:47:00,54.3,40.0,29.96,WNW,286,0.0,2.0,60,0.00,,,0.00,16,weatherlink.com 1.10,2013-02-14 15:47:00,
2013-02-14 17:02:00,53.6,40.0,29.96,WNW,287,0.0,1.0,61,0.00,,,0.00,12,weatherlink.com 1.10,2013-02-14 16:02:00,
2013-02-14 17:17:00,52.9,40.0,29.96,WNW,286,0.0,1.0,63,0.00,,,0.00,9,weatherlink.com 1.10,2013-02-14 16:17:00,
2013-02-14 17:32:00,52.3,40.0,29.96,WNW,286,0.0,1.0,64,0.00,,,0.00,0,weatherlink.com 1.10,2013-02-14 16:32:00,
2013-02-14 17:47:00,51.8,41.0,29.97,WNW,286,0.0,0.0,66,0.00,,,0.00,0,weatherlink.com 1.10,2013-02-14 16:47:00,
2013-02-14 18:02:00,51.3,41.0,29.97,WNW,286,0.0,0.0,67,0.00,,,0.00,0,weatherlink.com 1.10,2013-02-14 17:02:00,
2013-02-14 18:17:00,50.8,41.0,29.97,WNW,286,0.0,0.0,68,0.00,,,0.00,0,weatherlink.com 1.10,2013-02-14 17:17:00,
2013-02-14 18:32:00,50.4,39.0,29.98,WNW,286,0.0,1.0,66,0.00,,,0.00,0,weatherlink.com 1.10,2013-02-14 17:32:00,
2013-02-14 18:47:00,49.8,38.0,29.98,WNW,286,0.0,1.0,64,0.00,,,0.00,0,weatherlink.com 1.10,2013-02-14 17:47:00,
2013-02-14 19:02:00,49.4,38.0,29.99,WNW,286,0.0,1.0,65,0.00,,,0.00,0,weatherlink.com 1.10,2013-02-14 18:02:00,
2013-02-14 19:17:00,49.0,38.0,29.99,WNW,286,0.0,0.0,65,0.00,,,0.00,0,weatherlink.com 1.10,2013-02-14 18:17:00,
2013-02-14 19:32:00,48.4,37.0,29.99,WNW,286,0.0,2.0,66,0.00,,,0.00,0,weatherlink.com 1.10,2013-02-14 18:32:00,
2013-02-14 19:47:00,47.9,37.0,30.00,WNW,286,0.0,1.0,67,0.00,,,0.00,0,weatherlink.com 1.10,2013-02-14 18:47:00,
2013-02-14 20:02:00,47.5,37.0,30.00,WNW,286,0.0,0.0,68,0.00,,,0.00,0,weatherlink.com 1.10,2013-02-14 19:02:00,
2013-02-14 20:17:00,47.1,37.0,30.00,WNW,286,0.0,0.0,69,0.00,,,0.00,0,weatherlink.com 1.10,2013-02-14 19:17:00,
2013-02-14 20:32:00,46.8,37.0,30.00,WNW,286,0.0,0.0,70,0.00,,,0.00,0,weatherlink.com 1.10,2013-02-14 19:32:00,
2013-02-14 20:47:00,46.2,37.0,30.01,WNW,286,0.0,0.0,71,0.00,,,0.00,0,weatherlink.com 1.10,2013-02-14 19:47:00,
2013-02-14 21:02:00,45.0,37.0,30.01,WNW,286,0.0,1.0,73,0.00,,,0.00,0,weatherlink.com 1.10,2013-02-14 20:02:00,
2013-02-14 21:17:00,44.5,37.0,30.01,WNW,286,0.0,0.0,75,0.00,,,0.00,0,weatherlink.com 1.10,2013-02-14 20:17:00,
2013-02-14 21:32:00,44.5,37.0,30.01,WNW,286,0.0,0.0,75,0.00,,,0.00,0,weatherlink.com 1.10,2013-02-14 20:32:00,
2013-02-14 21:47:00,44.1,37.0,30.01,WNW,286,0.0,1.0,76,0.00,,,0.00,0,weatherlink.com 1.10,2013-02-14 20:47:00,
2013-02-14 22:02:00,43.2,36.0,30.00,WNW,286,0.0,1.0,77,0.00,,,0.00,0,weatherlink.com 1.10,2013-02-14 21:02:00,
2013-02-14 22:17:00,42.9,36.0,30.01,WNW,286,0.0,0.0,78,0.00,,,0.00,0,weatherlink.com 1.10,2013-02-14 21:17:00,
2013-02-14 22:32:00,42.7,36.0,30.00,WNW,286,0.0,1.0,78,0.00,,,0.00,0,weatherlink.com 1.10,2013-02-14 21:32:00,
2013-02-14 22:47:00,42.6,37.0,30.00,WNW,286,0.0,0.0,80,0.00,,,0.00,0,weatherlink.com 1.10,2013-02-14 21:47:00,
2013-02-14 23:02:00,42.8,37.0,30.00,WNW,286,0.0,0.0,79,0.00,,,0.00,0,weatherlink.com 1.10,2013-02-14 22:02:00,
2013-02-14 23:17:00,42.7,37.0,30.00,WNW,286,0.0,0.0,80,0.00,,,0.00,0,weatherlink.com 1.10,2013-02-14 22:17:00,
2013-02-14 23:32:00,42.4,36.0,30.01,WNW,286,0.0,0.0,79,0.00,,,0.00,0,weatherlink.com 1.10,2013-02-14 22:32:00,
2013-02-14 23:47:00,41.8,36.0,30.01,WNW,286,0.0,0.0,80,0.00,,,0.00,0,weatherlink.com 1.10,2013-02-14 22:47:00,